sensor_id;sensor_type;location;lat;lon;timestamp;P1;durP1;ratioP1;P2;durP2;ratioP2
52620;SDS011;38515;53.160;6.990;2023-09-12T00:02:24;598.70;;;549.40;;
52620;SDS011;38515;53.160;6.990;2023-09-12T00:04:50;586.75;;;538.50;;
52620;SDS011;38515;53.160;6.990;2023-09-12T00:07:16;568.45;;;521.95;;
52620;SDS011;38515;53.160;6.990;2023-09-12T00:09:42;609.97;;;560.58;;
52620;SDS011;38515;53.160;6.990;2023-09-12T00:12:07;628.08;;;576.65;;
52620;SDS011;38515;53.160;6.990;2023-09-12T00:14:33;618.15;;;569.05;;
52620;SDS011;38515;53.160;6.990;2023-09-12T00:16:59;663.95;;;609.85;;
52620;SDS011;38515;53.160;6.990;2023-09-12T00:19:25;733.20;;;670.22;;
52620;SDS011;38515;53.160;6.990;2023-09-12T00:21:51;703.80;;;646.13;;
52620;SDS011;38515;53.160;6.990;2023-09-12T00:24:18;693.75;;;640.33;;
52620;SDS011;38515;53.160;6.990;2023-09-12T00:26:44;729.35;;;666.33;;
52620;SDS011;38515;53.160;6.990;2023-09-12T00:29:10;768.33;;;700.97;;
52620;SDS011;38515;53.160;6.990;2023-09-12T00:31:35;762.42;;;697.30;;
52620;SDS011;38515;53.160;6.990;2023-09-12T00:34:01;763.22;;;696.92;;
52620;SDS011;38515;53.160;6.990;2023-09-12T00:36:27;800.30;;;730.70;;
52620;SDS011;38515;53.160;6.990;2023-09-12T00:38:53;729.85;;;666.10;;
52620;SDS011;38515;53.160;6.990;2023-09-12T00:41:19;808.55;;;735.53;;
52620;SDS011;38515;53.160;6.990;2023-09-12T00:43:45;709.78;;;649.42;;
52620;SDS011;38515;53.160;6.990;2023-09-12T00:46:13;723.90;;;660.63;;
52620;SDS011;38515;53.160;6.990;2023-09-12T00:48:43;785.97;;;715.60;;
52620;SDS011;38515;53.160;6.990;2023-09-12T00:51:09;719.22;;;655.83;;
52620;SDS011;38515;53.160;6.990;2023-09-12T00:53:36;704.22;;;641.58;;
52620;SDS011;38515;53.160;6.990;2023-09-12T00:56:01;732.53;;;666.72;;
52620;SDS011;38515;53.160;6.990;2023-09-12T00:58:27;730.35;;;662.65;;
52620;SDS011;38515;53.160;6.990;2023-09-12T01:00:56;704.63;;;641.70;;
52620;SDS011;38515;53.160;6.990;2023-09-12T01:03:22;744.35;;;676.83;;
52620;SDS011;38515;53.160;6.990;2023-09-12T01:05:48;776.28;;;702.72;;
52620;SDS011;38515;53.160;6.990;2023-09-12T01:08:14;728.33;;;661.65;;
52620;SDS011;38515;53.160;6.990;2023-09-12T01:10:40;706.58;;;643.13;;
52620;SDS011;38515;53.160;6.990;2023-09-12T01:13:11;721.80;;;657.33;;
52620;SDS011;38515;53.160;6.990;2023-09-12T01:15:38;721.58;;;657.00;;
52620;SDS011;38515;53.160;6.990;2023-09-12T01:18:04;709.67;;;646.08;;
52620;SDS011;38515;53.160;6.990;2023-09-12T01:20:31;692.53;;;632.47;;
52620;SDS011;38515;53.160;6.990;2023-09-12T01:26:01;695.67;;;634.22;;
52620;SDS011;38515;53.160;6.990;2023-09-12T01:28:43;743.92;;;677.63;;
52620;SDS011;38515;53.160;6.990;2023-09-12T01:31:10;756.90;;;688.40;;
52620;SDS011;38515;53.160;6.990;2023-09-12T01:33:38;741.35;;;674.20;;
52620;SDS011;38515;53.160;6.990;2023-09-12T01:36:05;795.50;;;724.92;;
52620;SDS011;38515;53.160;6.990;2023-09-12T01:38:31;842.05;;;763.17;;
52620;SDS011;38515;53.160;6.990;2023-09-12T01:40:57;643.47;;;591.72;;
52620;SDS011;38515;53.160;6.990;2023-09-12T01:43:23;739.40;;;672.40;;
52620;SDS011;38515;53.160;6.990;2023-09-12T01:45:55;766.88;;;699.03;;
52620;SDS011;38515;53.160;6.990;2023-09-12T01:48:25;705.65;;;648.38;;
52620;SDS011;38515;53.160;6.990;2023-09-12T01:50:58;664.58;;;608.20;;
52620;SDS011;38515;53.160;6.990;2023-09-12T01:53:26;647.17;;;593.50;;
52620;SDS011;38515;53.160;6.990;2023-09-12T01:55:53;659.90;;;607.30;;
52620;SDS011;38515;53.160;6.990;2023-09-12T01:58:21;790.35;;;721.63;;
52620;SDS011;38515;53.160;6.990;2023-09-12T02:00:47;765.42;;;698.30;;
52620;SDS011;38515;53.160;6.990;2023-09-12T02:03:13;727.40;;;667.40;;
52620;SDS011;38515;53.160;6.990;2023-09-12T02:05:38;840.72;;;761.10;;
52620;SDS011;38515;53.160;6.990;2023-09-12T02:08:05;611.10;;;562.42;;
52620;SDS011;38515;53.160;6.990;2023-09-12T02:10:32;633.63;;;579.28;;
52620;SDS011;38515;53.160;6.990;2023-09-12T02:12:58;655.67;;;599.25;;
52620;SDS011;38515;53.160;6.990;2023-09-12T02:15:24;644.58;;;588.95;;
52620;SDS011;38515;53.160;6.990;2023-09-12T02:17:51;638.80;;;584.33;;
52620;SDS011;38515;53.160;6.990;2023-09-12T02:20:17;559.97;;;516.30;;
52620;SDS011;38515;53.160;6.990;2023-09-12T02:22:44;545.80;;;503.85;;
52620;SDS011;38515;53.160;6.990;2023-09-12T02:25:10;588.55;;;541.40;;
52620;SDS011;38515;53.160;6.990;2023-09-12T02:27:36;645.78;;;593.45;;
52620;SDS011;38515;53.160;6.990;2023-09-12T02:30:02;687.35;;;629.88;;
52620;SDS011;38515;53.160;6.990;2023-09-12T02:32:29;782.13;;;713.05;;
52620;SDS011;38515;53.160;6.990;2023-09-12T02:34:55;716.42;;;655.80;;
52620;SDS011;38515;53.160;6.990;2023-09-12T02:37:22;834.63;;;753.42;;
52620;SDS011;38515;53.160;6.990;2023-09-12T02:39:48;748.20;;;680.75;;
52620;SDS011;38515;53.160;6.990;2023-09-12T02:42:14;762.25;;;693.53;;
52620;SDS011;38515;53.160;6.990;2023-09-12T02:44:40;759.88;;;691.35;;
52620;SDS011;38515;53.160;6.990;2023-09-12T02:47:05;789.35;;;719.75;;
52620;SDS011;38515;53.160;6.990;2023-09-12T02:49:31;732.25;;;667.95;;
52620;SDS011;38515;53.160;6.990;2023-09-12T02:51:57;746.22;;;679.88;;
52620;SDS011;38515;53.160;6.990;2023-09-12T02:54:23;755.03;;;684.92;;
52620;SDS011;38515;53.160;6.990;2023-09-12T02:56:49;742.47;;;678.17;;
52620;SDS011;38515;53.160;6.990;2023-09-12T02:59:15;704.00;;;644.35;;
52620;SDS011;38515;53.160;6.990;2023-09-12T03:01:41;754.83;;;690.33;;
52620;SDS011;38515;53.160;6.990;2023-09-12T03:04:06;739.53;;;676.63;;
52620;SDS011;38515;53.160;6.990;2023-09-12T03:06:32;609.45;;;561.65;;
52620;SDS011;38515;53.160;6.990;2023-09-12T03:08:58;773.95;;;705.45;;
52620;SDS011;38515;53.160;6.990;2023-09-12T03:11:27;750.58;;;685.70;;
52620;SDS011;38515;53.160;6.990;2023-09-12T03:13:53;815.38;;;736.92;;
52620;SDS011;38515;53.160;6.990;2023-09-12T03:16:19;661.75;;;606.25;;
52620;SDS011;38515;53.160;6.990;2023-09-12T03:18:46;650.45;;;596.65;;
52620;SDS011;38515;53.160;6.990;2023-09-12T03:21:12;755.00;;;684.88;;
52620;SDS011;38515;53.160;6.990;2023-09-12T03:23:38;716.00;;;652.88;;
52620;SDS011;38515;53.160;6.990;2023-09-12T03:26:04;748.20;;;680.95;;
52620;SDS011;38515;53.160;6.990;2023-09-12T03:28:31;770.03;;;700.38;;
52620;SDS011;38515;53.160;6.990;2023-09-12T03:31:07;702.65;;;643.22;;
52620;SDS011;38515;53.160;6.990;2023-09-12T03:33:36;620.10;;;570.42;;
52620;SDS011;38515;53.160;6.990;2023-09-12T03:36:03;715.85;;;654.35;;
52620;SDS011;38515;53.160;6.990;2023-09-12T03:38:29;716.13;;;654.55;;
52620;SDS011;38515;53.160;6.990;2023-09-12T03:40:55;667.92;;;609.47;;
52620;SDS011;38515;53.160;6.990;2023-09-12T03:43:21;585.30;;;536.72;;
52620;SDS011;38515;53.160;6.990;2023-09-12T03:45:47;672.40;;;614.90;;
52620;SDS011;38515;53.160;6.990;2023-09-12T03:48:12;635.25;;;583.60;;
52620;SDS011;38515;53.160;6.990;2023-09-12T03:50:38;521.63;;;475.75;;
52620;SDS011;38515;53.160;6.990;2023-09-12T03:53:04;600.83;;;536.80;;
52620;SDS011;38515;53.160;6.990;2023-09-12T03:55:30;608.92;;;557.75;;
52620;SDS011;38515;53.160;6.990;2023-09-12T03:57:56;663.72;;;602.72;;
52620;SDS011;38515;53.160;6.990;2023-09-12T04:00:22;625.72;;;571.20;;
52620;SDS011;38515;53.160;6.990;2023-09-12T04:02:48;582.40;;;535.85;;
52620;SDS011;38515;53.160;6.990;2023-09-12T04:05:14;656.85;;;600.63;;
52620;SDS011;38515;53.160;6.990;2023-09-12T04:07:40;600.85;;;548.05;;
52620;SDS011;38515;53.160;6.990;2023-09-12T04:10:05;641.45;;;586.38;;
52620;SDS011;38515;53.160;6.990;2023-09-12T04:12:31;620.78;;;567.17;;
52620;SDS011;38515;53.160;6.990;2023-09-12T04:14:57;723.97;;;660.97;;
52620;SDS011;38515;53.160;6.990;2023-09-12T04:17:23;691.20;;;631.08;;
52620;SDS011;38515;53.160;6.990;2023-09-12T04:19:49;699.92;;;641.88;;
52620;SDS011;38515;53.160;6.990;2023-09-12T04:22:15;723.67;;;661.15;;
52620;SDS011;38515;53.160;6.990;2023-09-12T04:24:41;606.13;;;551.83;;
52620;SDS011;38515;53.160;6.990;2023-09-12T04:27:07;793.80;;;721.53;;
52620;SDS011;38515;53.160;6.990;2023-09-12T04:29:33;743.65;;;675.72;;
52620;SDS011;38515;53.160;6.990;2023-09-12T04:32:01;788.65;;;713.08;;
52620;SDS011;38515;53.160;6.990;2023-09-12T04:34:30;792.83;;;721.13;;
52620;SDS011;38515;53.160;6.990;2023-09-12T04:36:56;836.80;;;756.00;;
52620;SDS011;38515;53.160;6.990;2023-09-12T04:39:22;840.33;;;758.50;;
52620;SDS011;38515;53.160;6.990;2023-09-12T04:41:48;764.03;;;693.17;;
52620;SDS011;38515;53.160;6.990;2023-09-12T04:44:14;801.17;;;727.85;;
52620;SDS011;38515;53.160;6.990;2023-09-12T04:46:40;740.20;;;675.83;;
52620;SDS011;38515;53.160;6.990;2023-09-12T04:49:06;837.10;;;752.85;;
52620;SDS011;38515;53.160;6.990;2023-09-12T04:51:31;710.63;;;645.97;;
52620;SDS011;38515;53.160;6.990;2023-09-12T04:53:57;747.08;;;680.75;;
52620;SDS011;38515;53.160;6.990;2023-09-12T04:56:23;805.67;;;733.25;;
52620;SDS011;38515;53.160;6.990;2023-09-12T04:58:52;748.72;;;680.92;;
52620;SDS011;38515;53.160;6.990;2023-09-12T05:01:18;861.80;;;776.20;;
52620;SDS011;38515;53.160;6.990;2023-09-12T05:03:44;863.03;;;779.28;;
52620;SDS011;38515;53.160;6.990;2023-09-12T05:06:12;847.88;;;764.95;;
52620;SDS011;38515;53.160;6.990;2023-09-12T05:08:39;750.63;;;686.33;;
52620;SDS011;38515;53.160;6.990;2023-09-12T05:11:05;800.25;;;728.30;;
52620;SDS011;38515;53.160;6.990;2023-09-12T05:13:31;801.40;;;729.65;;
52620;SDS011;38515;53.160;6.990;2023-09-12T05:15:58;819.92;;;742.03;;
52620;SDS011;38515;53.160;6.990;2023-09-12T05:18:24;831.95;;;755.80;;
52620;SDS011;38515;53.160;6.990;2023-09-12T05:20:50;820.78;;;746.35;;
52620;SDS011;38515;53.160;6.990;2023-09-12T05:23:19;792.20;;;722.85;;
52620;SDS011;38515;53.160;6.990;2023-09-12T05:25:45;783.40;;;711.70;;
52620;SDS011;38515;53.160;6.990;2023-09-12T05:28:10;766.88;;;695.65;;
52620;SDS011;38515;53.160;6.990;2023-09-12T05:30:41;840.78;;;760.95;;
52620;SDS011;38515;53.160;6.990;2023-09-12T05:33:07;785.50;;;709.03;;
52620;SDS011;38515;53.160;6.990;2023-09-12T05:35:33;726.88;;;662.42;;
52620;SDS011;38515;53.160;6.990;2023-09-12T05:37:59;829.70;;;753.50;;
52620;SDS011;38515;53.160;6.990;2023-09-12T05:40:25;840.00;;;761.03;;
52620;SDS011;38515;53.160;6.990;2023-09-12T05:42:51;808.58;;;736.55;;
52620;SDS011;38515;53.160;6.990;2023-09-12T05:45:16;776.33;;;704.90;;
52620;SDS011;38515;53.160;6.990;2023-09-12T05:47:42;799.08;;;726.47;;
52620;SDS011;38515;53.160;6.990;2023-09-12T05:50:08;818.22;;;740.10;;
52620;SDS011;38515;53.160;6.990;2023-09-12T05:52:34;778.25;;;694.90;;
52620;SDS011;38515;53.160;6.990;2023-09-12T05:55:01;859.40;;;705.72;;
52620;SDS011;38515;53.160;6.990;2023-09-12T05:57:27;833.72;;;686.50;;
52620;SDS011;38515;53.160;6.990;2023-09-12T05:59:52;1003.70;;;769.22;;
52620;SDS011;38515;53.160;6.990;2023-09-12T06:02:18;902.80;;;720.60;;
52620;SDS011;38515;53.160;6.990;2023-09-12T06:04:44;974.78;;;720.67;;
52620;SDS011;38515;53.160;6.990;2023-09-12T06:07:10;946.28;;;685.38;;
52620;SDS011;38515;53.160;6.990;2023-09-12T06:09:36;1032.07;;;784.25;;
52620;SDS011;38515;53.160;6.990;2023-09-12T06:12:02;827.10;;;724.83;;
52620;SDS011;38515;53.160;6.990;2023-09-12T06:14:28;1051.63;;;740.92;;
52620;SDS011;38515;53.160;6.990;2023-09-12T06:16:54;903.05;;;744.03;;
52620;SDS011;38515;53.160;6.990;2023-09-12T06:19:20;921.85;;;823.58;;
52620;SDS011;38515;53.160;6.990;2023-09-12T06:21:46;853.28;;;767.47;;
52620;SDS011;38515;53.160;6.990;2023-09-12T06:26:41;856.80;;;763.03;;
52620;SDS011;38515;53.160;6.990;2023-09-12T06:29:08;790.83;;;716.08;;
52620;SDS011;38515;53.160;6.990;2023-09-12T06:31:34;863.10;;;776.85;;
52620;SDS011;38515;53.160;6.990;2023-09-12T06:34:03;818.95;;;739.35;;
52620;SDS011;38515;53.160;6.990;2023-09-12T06:36:28;803.13;;;724.90;;
52620;SDS011;38515;53.160;6.990;2023-09-12T06:38:55;891.67;;;784.40;;
52620;SDS011;38515;53.160;6.990;2023-09-12T06:41:21;794.97;;;671.83;;
52620;SDS011;38515;53.160;6.990;2023-09-12T06:43:47;881.88;;;726.08;;
52620;SDS011;38515;53.160;6.990;2023-09-12T06:46:13;907.45;;;762.47;;
52620;SDS011;38515;53.160;6.990;2023-09-12T06:48:39;1072.97;;;827.53;;
52620;SDS011;38515;53.160;6.990;2023-09-12T06:51:05;794.92;;;718.08;;
52620;SDS011;38515;53.160;6.990;2023-09-12T06:53:33;920.80;;;813.22;;
52620;SDS011;38515;53.160;6.990;2023-09-12T06:55:59;804.88;;;729.78;;
52620;SDS011;38515;53.160;6.990;2023-09-12T06:58:25;1030.32;;;845.15;;
52620;SDS011;38515;53.160;6.990;2023-09-12T07:00:51;970.92;;;836.35;;
52620;SDS011;38515;53.160;6.990;2023-09-12T07:03:17;1064.53;;;880.55;;
52620;SDS011;38515;53.160;6.990;2023-09-12T07:05:43;886.20;;;795.10;;
52620;SDS011;38515;53.160;6.990;2023-09-12T07:08:09;811.15;;;726.42;;
52620;SDS011;38515;53.160;6.990;2023-09-12T07:10:35;830.28;;;747.58;;
52620;SDS011;38515;53.160;6.990;2023-09-12T07:13:02;1074.32;;;879.20;;
52620;SDS011;38515;53.160;6.990;2023-09-12T07:15:28;656.15;;;595.10;;
52620;SDS011;38515;53.160;6.990;2023-09-12T07:17:54;848.28;;;762.47;;
52620;SDS011;38515;53.160;6.990;2023-09-12T07:20:21;733.10;;;664.83;;
52620;SDS011;38515;53.160;6.990;2023-09-12T07:22:47;690.05;;;627.13;;
52620;SDS011;38515;53.160;6.990;2023-09-12T07:25:13;618.70;;;565.30;;
52620;SDS011;38515;53.160;6.990;2023-09-12T07:27:39;764.08;;;682.58;;
52620;SDS011;38515;53.160;6.990;2023-09-12T07:30:05;801.72;;;728.72;;
52620;SDS011;38515;53.160;6.990;2023-09-12T07:32:32;805.90;;;730.45;;
52620;SDS011;38515;53.160;6.990;2023-09-12T07:34:58;658.50;;;602.00;;
52620;SDS011;38515;53.160;6.990;2023-09-12T07:37:24;818.05;;;734.45;;
52620;SDS011;38515;53.160;6.990;2023-09-12T07:39:50;749.58;;;676.40;;
52620;SDS011;38515;53.160;6.990;2023-09-12T07:42:16;814.08;;;734.85;;
52620;SDS011;38515;53.160;6.990;2023-09-12T07:44:45;700.97;;;637.55;;
52620;SDS011;38515;53.160;6.990;2023-09-12T07:47:11;762.53;;;692.97;;
52620;SDS011;38515;53.160;6.990;2023-09-12T07:49:37;768.55;;;697.38;;
52620;SDS011;38515;53.160;6.990;2023-09-12T07:52:05;682.90;;;621.63;;
52620;SDS011;38515;53.160;6.990;2023-09-12T07:54:31;754.45;;;684.67;;
52620;SDS011;38515;53.160;6.990;2023-09-12T07:56:57;780.00;;;709.90;;
52620;SDS011;38515;53.160;6.990;2023-09-12T07:59:23;806.47;;;721.70;;
52620;SDS011;38515;53.160;6.990;2023-09-12T08:01:49;776.72;;;700.28;;
52620;SDS011;38515;53.160;6.990;2023-09-12T08:04:15;741.30;;;675.30;;
52620;SDS011;38515;53.160;6.990;2023-09-12T08:06:41;691.60;;;633.15;;
52620;SDS011;38515;53.160;6.990;2023-09-12T08:09:08;767.80;;;697.08;;
52620;SDS011;38515;53.160;6.990;2023-09-12T08:11:35;759.03;;;690.03;;
52620;SDS011;38515;53.160;6.990;2023-09-12T08:14:01;828.83;;;743.90;;
52620;SDS011;38515;53.160;6.990;2023-09-12T08:16:27;695.35;;;631.30;;
52620;SDS011;38515;53.160;6.990;2023-09-12T08:18:53;728.75;;;663.22;;
52620;SDS011;38515;53.160;6.990;2023-09-12T08:21:19;664.55;;;604.40;;
52620;SDS011;38515;53.160;6.990;2023-09-12T08:23:44;629.25;;;574.22;;
52620;SDS011;38515;53.160;6.990;2023-09-12T08:26:10;608.80;;;558.97;;
52620;SDS011;38515;53.160;6.990;2023-09-12T08:28:36;699.22;;;636.53;;
52620;SDS011;38515;53.160;6.990;2023-09-12T08:31:02;645.60;;;590.63;;
52620;SDS011;38515;53.160;6.990;2023-09-12T08:33:28;739.97;;;674.58;;
52620;SDS011;38515;53.160;6.990;2023-09-12T08:35:54;616.38;;;562.38;;
52620;SDS011;38515;53.160;6.990;2023-09-12T08:38:20;600.85;;;550.22;;
52620;SDS011;38515;53.160;6.990;2023-09-12T08:40:49;571.15;;;526.85;;
52620;SDS011;38515;53.160;6.990;2023-09-12T08:43:16;424.77;;;390.92;;
52620;SDS011;38515;53.160;6.990;2023-09-12T08:45:42;457.50;;;419.92;;
52620;SDS011;38515;53.160;6.990;2023-09-12T08:48:11;465.05;;;431.30;;
52620;SDS011;38515;53.160;6.990;2023-09-12T08:50:38;479.10;;;443.88;;
52620;SDS011;38515;53.160;6.990;2023-09-12T08:53:04;464.67;;;432.08;;
52620;SDS011;38515;53.160;6.990;2023-09-12T08:55:33;483.38;;;447.20;;
52620;SDS011;38515;53.160;6.990;2023-09-12T08:58:04;437.67;;;406.27;;
52620;SDS011;38515;53.160;6.990;2023-09-12T09:00:30;492.23;;;454.65;;
52620;SDS011;38515;53.160;6.990;2023-09-12T09:02:56;479.73;;;441.25;;
52620;SDS011;38515;53.160;6.990;2023-09-12T09:05:23;502.35;;;465.65;;
52620;SDS011;38515;53.160;6.990;2023-09-12T09:07:50;554.30;;;509.75;;
52620;SDS011;38515;53.160;6.990;2023-09-12T09:10:17;407.35;;;378.52;;
52620;SDS011;38515;53.160;6.990;2023-09-12T09:12:46;544.33;;;500.27;;
52620;SDS011;38515;53.160;6.990;2023-09-12T09:15:25;549.92;;;506.30;;
52620;SDS011;38515;53.160;6.990;2023-09-12T09:17:53;440.63;;;409.77;;
52620;SDS011;38515;53.160;6.990;2023-09-12T09:20:21;441.15;;;411.30;;
52620;SDS011;38515;53.160;6.990;2023-09-12T09:23:00;459.70;;;428.33;;
52620;SDS011;38515;53.160;6.990;2023-09-12T09:25:31;432.45;;;403.20;;
52620;SDS011;38515;53.160;6.990;2023-09-12T09:28:05;442.92;;;412.95;;
52620;SDS011;38515;53.160;6.990;2023-09-12T09:30:45;450.02;;;418.23;;
52620;SDS011;38515;53.160;6.990;2023-09-12T09:33:16;278.08;;;260.95;;
52620;SDS011;38515;53.160;6.990;2023-09-12T09:35:42;443.65;;;412.35;;
52620;SDS011;38515;53.160;6.990;2023-09-12T09:38:10;395.92;;;368.08;;
52620;SDS011;38515;53.160;6.990;2023-09-12T09:40:41;418.90;;;391.17;;
52620;SDS011;38515;53.160;6.990;2023-09-12T09:43:08;389.77;;;363.55;;
52620;SDS011;38515;53.160;6.990;2023-09-12T09:45:42;333.85;;;310.77;;
52620;SDS011;38515;53.160;6.990;2023-09-12T09:48:21;326.27;;;303.75;;
52620;SDS011;38515;53.160;6.990;2023-09-12T09:50:48;421.58;;;394.98;;
52620;SDS011;38515;53.160;6.990;2023-09-12T09:53:14;486.40;;;454.23;;
52620;SDS011;38515;53.160;6.990;2023-09-12T09:55:40;301.38;;;280.88;;
52620;SDS011;38515;53.160;6.990;2023-09-12T09:58:07;469.25;;;436.50;;
52620;SDS011;38515;53.160;6.990;2023-09-12T10:00:34;277.63;;;259.10;;
52620;SDS011;38515;53.160;6.990;2023-09-12T10:03:05;427.35;;;395.42;;
52620;SDS011;38515;53.160;6.990;2023-09-12T10:05:32;369.02;;;341.60;;
52620;SDS011;38515;53.160;6.990;2023-09-12T10:07:59;300.75;;;280.77;;
52620;SDS011;38515;53.160;6.990;2023-09-12T10:10:27;281.55;;;263.27;;
52620;SDS011;38515;53.160;6.990;2023-09-12T10:12:56;319.35;;;297.33;;
52620;SDS011;38515;53.160;6.990;2023-09-12T10:15:24;270.42;;;252.55;;
52620;SDS011;38515;53.160;6.990;2023-09-12T10:17:55;292.38;;;273.48;;
52620;SDS011;38515;53.160;6.990;2023-09-12T10:21:10;391.73;;;363.10;;
52620;SDS011;38515;53.160;6.990;2023-09-12T10:23:26;350.95;;;327.80;;
52620;SDS011;38515;53.160;6.990;2023-09-12T10:26:02;303.40;;;283.50;;
52620;SDS011;38515;53.160;6.990;2023-09-12T10:28:29;312.60;;;291.35;;
52620;SDS011;38515;53.160;6.990;2023-09-12T10:30:57;294.48;;;276.70;;
52620;SDS011;38515;53.160;6.990;2023-09-12T10:33:24;256.55;;;240.68;;
52620;SDS011;38515;53.160;6.990;2023-09-12T10:35:52;261.33;;;245.43;;
52620;SDS011;38515;53.160;6.990;2023-09-12T10:38:19;221.98;;;208.35;;
52620;SDS011;38515;53.160;6.990;2023-09-12T10:40:48;362.63;;;340.23;;
52620;SDS011;38515;53.160;6.990;2023-09-12T10:43:17;263.75;;;246.50;;
52620;SDS011;38515;53.160;6.990;2023-09-12T10:45:44;212.30;;;198.45;;
52620;SDS011;38515;53.160;6.990;2023-09-12T10:48:10;252.43;;;236.68;;
52620;SDS011;38515;53.160;6.990;2023-09-12T10:50:37;336.85;;;315.75;;
52620;SDS011;38515;53.160;6.990;2023-09-12T10:53:11;305.15;;;286.70;;
52620;SDS011;38515;53.160;6.990;2023-09-12T10:55:37;376.15;;;355.10;;
52620;SDS011;38515;53.160;6.990;2023-09-12T10:58:12;302.88;;;284.58;;
52620;SDS011;38515;53.160;6.990;2023-09-12T11:00:39;225.32;;;211.82;;
52620;SDS011;38515;53.160;6.990;2023-09-12T11:06:04;240.05;;;224.98;;
52620;SDS011;38515;53.160;6.990;2023-09-12T11:08:52;298.25;;;279.60;;
52620;SDS011;38515;53.160;6.990;2023-09-12T11:11:44;332.38;;;312.65;;
52620;SDS011;38515;53.160;6.990;2023-09-12T11:14:12;299.30;;;280.38;;
52620;SDS011;38515;53.160;6.990;2023-09-12T11:16:38;303.83;;;285.10;;
52620;SDS011;38515;53.160;6.990;2023-09-12T11:19:20;311.25;;;292.27;;
52620;SDS011;38515;53.160;6.990;2023-09-12T11:21:54;221.30;;;207.32;;
52620;SDS011;38515;53.160;6.990;2023-09-12T11:24:23;321.88;;;302.98;;
52620;SDS011;38515;53.160;6.990;2023-09-12T11:26:59;222.35;;;208.32;;
52620;SDS011;38515;53.160;6.990;2023-09-12T11:29:34;280.50;;;263.33;;
52620;SDS011;38515;53.160;6.990;2023-09-12T11:32:02;276.45;;;258.25;;
52620;SDS011;38515;53.160;6.990;2023-09-12T11:34:30;329.70;;;310.67;;
52620;SDS011;38515;53.160;6.990;2023-09-12T11:37:10;404.80;;;380.40;;
52620;SDS011;38515;53.160;6.990;2023-09-12T11:39:47;267.88;;;251.57;;
52620;SDS011;38515;53.160;6.990;2023-09-12T11:42:15;324.02;;;304.20;;
52620;SDS011;38515;53.160;6.990;2023-09-12T11:44:41;295.13;;;278.45;;
52620;SDS011;38515;53.160;6.990;2023-09-12T11:47:11;272.27;;;256.20;;
52620;SDS011;38515;53.160;6.990;2023-09-12T11:49:38;219.52;;;206.27;;
52620;SDS011;38515;53.160;6.990;2023-09-12T11:52:12;184.10;;;173.65;;
52620;SDS011;38515;53.160;6.990;2023-09-12T11:54:40;377.33;;;354.02;;
52620;SDS011;38515;53.160;6.990;2023-09-12T11:57:11;371.25;;;350.20;;
52620;SDS011;38515;53.160;6.990;2023-09-12T11:59:43;390.67;;;367.13;;
52620;SDS011;38515;53.160;6.990;2023-09-12T12:02:17;344.80;;;322.80;;
52620;SDS011;38515;53.160;6.990;2023-09-12T12:04:43;420.40;;;392.95;;
52620;SDS011;38515;53.160;6.990;2023-09-12T12:07:10;442.45;;;412.67;;
52620;SDS011;38515;53.160;6.990;2023-09-12T12:09:36;374.75;;;353.77;;
52620;SDS011;38515;53.160;6.990;2023-09-12T12:12:09;374.08;;;349.63;;
52620;SDS011;38515;53.160;6.990;2023-09-12T12:14:39;459.75;;;429.08;;
52620;SDS011;38515;53.160;6.990;2023-09-12T12:17:09;500.17;;;465.98;;
52620;SDS011;38515;53.160;6.990;2023-09-12T12:19:44;490.15;;;458.45;;
52620;SDS011;38515;53.160;6.990;2023-09-12T12:22:10;454.58;;;425.05;;
52620;SDS011;38515;53.160;6.990;2023-09-12T12:24:40;492.17;;;458.50;;
52620;SDS011;38515;53.160;6.990;2023-09-12T12:27:09;372.77;;;351.52;;
52620;SDS011;38515;53.160;6.990;2023-09-12T12:29:36;389.55;;;367.02;;
52620;SDS011;38515;53.160;6.990;2023-09-12T12:32:04;392.40;;;367.10;;
52620;SDS011;38515;53.160;6.990;2023-09-12T12:34:32;497.73;;;464.33;;
52620;SDS011;38515;53.160;6.990;2023-09-12T12:37:01;420.85;;;395.75;;
52620;SDS011;38515;53.160;6.990;2023-09-12T12:39:27;410.88;;;384.67;;
52620;SDS011;38515;53.160;6.990;2023-09-12T12:41:53;396.60;;;372.60;;
52620;SDS011;38515;53.160;6.990;2023-09-12T12:44:20;403.80;;;377.70;;
52620;SDS011;38515;53.160;6.990;2023-09-12T12:46:50;298.05;;;278.13;;
52620;SDS011;38515;53.160;6.990;2023-09-12T12:49:20;396.38;;;371.65;;
52620;SDS011;38515;53.160;6.990;2023-09-12T12:51:46;421.55;;;394.35;;
52620;SDS011;38515;53.160;6.990;2023-09-12T12:54:13;304.27;;;285.23;;
52620;SDS011;38515;53.160;6.990;2023-09-12T12:56:40;358.45;;;334.70;;
52620;SDS011;38515;53.160;6.990;2023-09-12T12:59:08;312.50;;;294.83;;
52620;SDS011;38515;53.160;6.990;2023-09-12T13:01:34;368.02;;;342.50;;
52620;SDS011;38515;53.160;6.990;2023-09-12T13:04:01;239.90;;;227.32;;
52620;SDS011;38515;53.160;6.990;2023-09-12T13:06:29;217.38;;;205.15;;
52620;SDS011;38515;53.160;6.990;2023-09-12T13:08:55;415.83;;;390.58;;
52620;SDS011;38515;53.160;6.990;2023-09-12T13:11:22;247.20;;;233.05;;
52620;SDS011;38515;53.160;6.990;2023-09-12T13:13:48;438.90;;;412.83;;
52620;SDS011;38515;53.160;6.990;2023-09-12T13:16:15;455.90;;;425.83;;
52620;SDS011;38515;53.160;6.990;2023-09-12T13:18:41;322.27;;;302.05;;
52620;SDS011;38515;53.160;6.990;2023-09-12T13:21:07;495.48;;;462.85;;
52620;SDS011;38515;53.160;6.990;2023-09-12T13:23:33;288.38;;;269.38;;
52620;SDS011;38515;53.160;6.990;2023-09-12T13:26:01;437.75;;;409.17;;
52620;SDS011;38515;53.160;6.990;2023-09-12T13:28:28;426.13;;;399.90;;
52620;SDS011;38515;53.160;6.990;2023-09-12T13:30:54;464.23;;;436.13;;
52620;SDS011;38515;53.160;6.990;2023-09-12T13:33:21;466.23;;;436.30;;
52620;SDS011;38515;53.160;6.990;2023-09-12T13:35:48;506.13;;;471.13;;
52620;SDS011;38515;53.160;6.990;2023-09-12T13:38:15;180.63;;;170.88;;
52620;SDS011;38515;53.160;6.990;2023-09-12T13:40:43;512.15;;;475.38;;
52620;SDS011;38515;53.160;6.990;2023-09-12T13:43:10;469.38;;;441.13;;
52620;SDS011;38515;53.160;6.990;2023-09-12T13:45:37;414.10;;;389.60;;
52620;SDS011;38515;53.160;6.990;2023-09-12T13:48:04;288.02;;;272.00;;
52620;SDS011;38515;53.160;6.990;2023-09-12T13:50:31;264.40;;;251.00;;
52620;SDS011;38515;53.160;6.990;2023-09-12T13:52:58;294.58;;;277.95;;
52620;SDS011;38515;53.160;6.990;2023-09-12T13:55:25;411.65;;;385.17;;
52620;SDS011;38515;53.160;6.990;2023-09-12T13:57:51;424.13;;;396.23;;
52620;SDS011;38515;53.160;6.990;2023-09-12T14:00:17;465.25;;;432.70;;
52620;SDS011;38515;53.160;6.990;2023-09-12T14:02:43;390.50;;;364.30;;
52620;SDS011;38515;53.160;6.990;2023-09-12T14:05:12;388.50;;;365.20;;
52620;SDS011;38515;53.160;6.990;2023-09-12T14:07:38;340.50;;;320.45;;